Weather History for KPVC - December, 2012

Change the Weather History Date:

Sunday, December 30, 2012

  Actual Average Record
Temperature  
Mean Temperature 32 °F -  
Max Temperature 35 °F - - ()
Min Temperature 28 °F - - ()
Degree Days  
Heating Degree Days 34    
Moisture  
Dew Point 24 °F    
Average Humidity 72    
Maximum Humidity 100    
Minimum Humidity 51    
Precipitation  
Precipitation 1.12 in - - ()
Sea Level Pressure  
Sea Level Pressure 29.62 in    
Wind  
Wind Speed 29 mph (NW)    
Max Wind Speed 37 mph    
Max Gust Speed 51 mph    
Visibility 9 miles    
Events      
T = Trace of Precipitation, MM = Missing Value Source: NWS Daily Summary

Daily Weather History Graph

Daily Weather History Graph

Search for Another Location

Airport or City:

Trip Planner

Search our weather history database for the weather conditions in past years. The results will help you decide how hot, cold, wet, or windy it might be!

Date:

Astronomy

Dec. 30, 2012 Rise Set
Actual Time 7:09 AM EST 4:18 PM EST
Civil Twilight 6:37 AM EST 4:50 PM EST
Nautical Twilight 6:02 AM EST 5:25 PM EST
Astronomical Twilight 5:28 AM EST 5:59 PM EST
Moon 6:49 PM EST (12/30) 8:13 AM EST (12/30)
Length of Visible Light 10h 12m
Length of Day
9h 09m
Waning Gibbous, 95% of the Moon is Illuminated
Dec 30
Waning Gibbous
Jan 4
Last Quarter
Jan 11
New
Jan 18
First Quarter
Jan 26
Full

Hourly Weather History & Observations

Time (EST) Temp. Windchill Dew Point Humidity Pressure Visibility Wind Dir Wind Speed Gust Speed Precip Events Conditions
12:15 AM 33.8 °F 20.8 °F 32.0 °F 93% 29.30 in 2.0 mi North 26.5 mph 33.4 mph N/A   Overcast
12:35 AM 35.6 °F 23.7 °F 33.8 °F 93% 29.31 in 4.0 mi North 24.2 mph 34.5 mph N/A   Overcast
12:55 AM 35.6 °F 22.3 °F 33.8 °F 93% 29.32 in 3.0 mi NNW 31.1 mph 41.4 mph 0.15 in   Overcast
1:15 AM 35.6 °F 21.9 °F 33.8 °F 93% 29.34 in 4.0 mi NNW 33.4 mph 40.3 mph 0.02 in   Overcast
1:55 AM 33.8 °F 20.3 °F 32.0 °F 93% 29.35 in 4.0 mi North 28.8 mph 42.6 mph 0.03 in   Overcast
2:35 AM 33.8 °F 20.1 °F 32.0 °F 93% 29.37 in 6.0 mi NNW 29.9 mph 38.0 mph N/A   Overcast
2:55 AM 33.8 °F 20.8 °F 33.8 °F 100% 29.39 in 8.0 mi NNW 26.5 mph 38.0 mph N/A   Overcast
3:15 AM 33.8 °F 20.8 °F 33.8 °F 100% 29.40 in 6.0 mi NNW 26.5 mph 35.7 mph N/A   Overcast
3:35 AM 33.8 °F 21.3 °F 32.0 °F 93% 29.41 in 9.0 mi NNW 24.2 mph 35.7 mph N/A   Overcast
3:55 AM 33.8 °F 20.8 °F 30.2 °F 87% 29.42 in 10.0 mi NNW 26.5 mph 35.7 mph N/A   Overcast
4:15 AM 32.0 °F 19.5 °F 28.4 °F 87% 29.43 in 10.0 mi NW 21.9 mph 33.4 mph N/A   Overcast
4:35 AM 33.8 °F 20.1 °F 30.2 °F 87% 29.44 in 10.0 mi NNW 29.9 mph 35.7 mph N/A   Overcast
5:15 AM 33.8 °F 21.9 °F 28.4 °F 81% 29.46 in 10.0 mi NNW 21.9 mph 29.9 mph N/A   Overcast
5:35 AM 33.8 °F 21.9 °F 28.4 °F 81% 29.47 in 10.0 mi NNW 21.9 mph 29.9 mph N/A   Overcast
5:55 AM 33.8 °F 21.0 °F 28.4 °F 81% 29.47 in 10.0 mi NW 25.3 mph 31.1 mph N/A   Overcast
6:15 AM 33.8 °F 20.8 °F 28.4 °F 81% 29.49 in 10.0 mi NW 26.5 mph 34.5 mph N/A   Overcast
6:35 AM 33.8 °F 21.0 °F 28.4 °F 81% 29.50 in 10.0 mi NW 25.3 mph 31.1 mph N/A   Overcast
6:55 AM 33.8 °F 21.6 °F 28.4 °F 81% 29.51 in 10.0 mi NW 23.0 mph 32.2 mph 0.61 in   Overcast
7:35 AM 33.8 °F 21.9 °F 28.4 °F 81% 29.52 in 10.0 mi NW 21.9 mph 32.2 mph 0.33 in   Overcast
7:55 AM 33.8 °F 21.3 °F 28.4 °F 81% 29.53 in 10.0 mi NW 24.2 mph 33.4 mph 0.33 in   Overcast
8:15 AM 33.8 °F 20.3 °F 28.4 °F 81% 29.54 in 4.0 mi NW 28.8 mph 34.5 mph N/A   Overcast
8:35 AM 32.0 °F 18.9 °F 28.4 °F 87% 29.55 in 8.0 mi NW 24.2 mph 35.7 mph N/A   Overcast
8:55 AM 32.0 °F 18.4 °F 26.6 °F 80% 29.56 in 10.0 mi NW 26.5 mph 35.7 mph N/A   Overcast
10:15 AM 32.0 °F 18.9 °F 24.8 °F 75% 29.60 in 10.0 mi NW 24.2 mph 40.3 mph N/A   Overcast
10:55 AM 32.0 °F 17.0 °F 21.2 °F 64% 29.60 in 10.0 mi NW 33.4 mph 41.4 mph N/A   Mostly Cloudy
11:15 AM 32.0 °F 17.4 °F 24.8 °F 75% 29.61 in 10.0 mi NW 31.1 mph 39.1 mph N/A   Mostly Cloudy
11:35 AM 33.8 °F 19.2 °F 24.8 °F 70% 29.60 in 10.0 mi NW 34.5 mph 48.3 mph N/A   Scattered Clouds
12:35 PM 33.8 °F 20.3 °F 23.0 °F 65% 29.61 in 10.0 mi NW 28.8 mph 41.4 mph N/A   Mostly Cloudy
12:55 PM 33.8 °F 20.8 °F 23.0 °F 65% 29.61 in 10.0 mi NW 26.5 mph 39.1 mph N/A   Mostly Cloudy
1:15 PM 32.0 °F 17.9 °F 21.2 °F 64% 29.62 in 10.0 mi WNW 28.8 mph 41.4 mph N/A   Overcast
1:35 PM 33.8 °F 19.6 °F 21.2 °F 60% 29.62 in 10.0 mi NW 32.2 mph 44.9 mph N/A   Overcast
1:55 PM 33.8 °F 20.1 °F 19.4 °F 56% 29.63 in 10.0 mi NW 29.9 mph 43.7 mph N/A   Mostly Cloudy
2:15 PM 33.8 °F 19.6 °F 19.4 °F 56% 29.63 in 10.0 mi WNW 32.2 mph 43.7 mph N/A   Mostly Cloudy
2:35 PM 33.8 °F 19.9 °F 19.4 °F 56% 29.64 in 10.0 mi NW 31.1 mph 43.7 mph N/A   Overcast
3:35 PM 33.8 °F 19.4 °F 19.4 °F 56% 29.68 in 10.0 mi NW 33.4 mph 50.6 mph N/A   Overcast
3:55 PM 33.8 °F 19.4 °F 19.4 °F 56% 29.69 in 10.0 mi NW 33.4 mph 46.0 mph N/A   Mostly Cloudy
4:35 PM 33.8 °F 19.2 °F 19.4 °F 56% 29.71 in 10.0 mi NW 34.5 mph 44.9 mph N/A   Scattered Clouds
4:55 PM 32.0 °F 17.6 °F 19.4 °F 60% 29.73 in 10.0 mi NW 29.9 mph 40.3 mph N/A   Clear
5:35 PM 32.0 °F 16.7 °F 15.8 °F 51% 29.76 in 10.0 mi WNW 34.5 mph 50.6 mph N/A   Clear
5:55 PM 30.2 °F 13.9 °F 17.6 °F 60% 29.78 in 10.0 mi NW 36.8 mph 47.2 mph N/A   Clear
6:15 PM 30.2 °F 14.9 °F 17.6 °F 60% 29.79 in 10.0 mi NW 31.1 mph 44.9 mph N/A   Clear
6:35 PM 30.2 °F 15.2 °F 17.6 °F 60% 29.80 in 10.0 mi NW 29.9 mph 46.0 mph N/A   Clear
6:55 PM 30.2 °F 14.7 °F 17.6 °F 60% 29.81 in 10.0 mi NW 32.2 mph 43.7 mph N/A   Clear
7:15 PM 30.2 °F 14.7 °F 17.6 °F 60% 29.82 in 10.0 mi NW 32.2 mph 48.3 mph N/A   Clear
7:35 PM 30.2 °F 14.3 °F 17.6 °F 60% 29.83 in 10.0 mi NW 34.5 mph 49.5 mph N/A   Clear
7:55 PM 30.2 °F 13.9 °F 15.8 °F 55% 29.83 in 10.0 mi NW 36.8 mph 50.6 mph N/A   Clear
8:15 PM 30.2 °F 14.7 °F 15.8 °F 55% 29.84 in 10.0 mi NW 32.2 mph 48.3 mph N/A   Clear
8:35 PM 30.2 °F 14.1 °F 15.8 °F 55% 29.85 in 10.0 mi WNW 35.7 mph 48.3 mph N/A   Clear
8:55 PM 30.2 °F 14.5 °F 17.6 °F 60% 29.86 in 10.0 mi NW 33.4 mph 43.7 mph N/A   Clear
9:15 PM 28.4 °F 11.8 °F 15.8 °F 59% 29.87 in 10.0 mi NW 34.5 mph 43.7 mph N/A   Clear
9:55 PM 28.4 °F 12.7 °F 15.8 °F 59% 29.89 in 10.0 mi NW 29.9 mph 44.9 mph N/A   Clear
10:35 PM 28.4 °F 12.0 °F 17.6 °F 64% 29.89 in 10.0 mi WNW 33.4 mph 48.3 mph N/A   Clear
10:55 PM 28.4 °F 11.4 °F 17.6 °F 64% 29.90 in 10.0 mi NW 36.8 mph 48.3 mph N/A   Clear
11:35 PM 28.4 °F 12.3 °F 15.8 °F 59% 29.92 in 10.0 mi WNW 32.2 mph 44.9 mph N/A   Clear
11:55 PM 28.4 °F 11.6 °F 15.8 °F 59% 29.92 in 10.0 mi WNW 35.7 mph 47.2 mph N/A   Clear